createdAt,value
2018-07-12T00:01:44.227Z,2.60
2018-07-12T00:04:10.569Z,2.10
2018-07-12T00:06:36.986Z,1.90
2018-07-12T00:09:03.554Z,2.17
2018-07-12T00:11:29.913Z,2.47
2018-07-12T00:13:56.282Z,2.23
2018-07-12T00:16:22.700Z,2.07
2018-07-12T00:18:49.028Z,2.10
2018-07-12T00:21:15.419Z,2.30
2018-07-12T00:23:41.867Z,1.80
2018-07-12T00:26:08.665Z,3.87
2018-07-12T00:28:35.045Z,2.33
2018-07-12T00:31:02.231Z,2.10
2018-07-12T00:33:29.567Z,2.17
2018-07-12T00:35:55.928Z,2.40
2018-07-12T00:38:23.916Z,2.87
2018-07-12T00:43:23.389Z,2.13
2018-07-12T00:45:49.986Z,4.27
2018-07-12T00:48:16.347Z,2.10
2018-07-12T00:50:42.700Z,2.03
2018-07-12T00:53:09.283Z,2.07
2018-07-12T00:55:35.618Z,2.53
2018-07-12T00:58:01.946Z,2.60
2018-07-12T01:00:28.499Z,2.23
2018-07-12T01:02:54.885Z,3.43
2018-07-12T01:05:21.495Z,3.03
2018-07-12T01:07:48.076Z,2.93
2018-07-12T01:10:14.987Z,2.50
2018-07-12T01:12:41.347Z,2.63
2018-07-12T01:15:09.498Z,2.33
2018-07-12T01:17:35.933Z,2.27
2018-07-12T01:20:02.305Z,3.73
2018-07-12T01:22:28.944Z,2.20
2018-07-12T01:24:55.333Z,1.93
2018-07-12T01:27:21.893Z,2.30
2018-07-12T01:29:48.512Z,2.00
2018-07-12T01:32:14.858Z,2.07
2018-07-12T01:34:41.251Z,1.77
2018-07-12T01:37:07.825Z,2.70
2018-07-12T01:39:34.814Z,1.87
2018-07-12T01:42:01.223Z,3.20
2018-07-12T01:44:27.908Z,1.97
2018-07-12T01:46:55.636Z,1.97
2018-07-12T01:49:23.485Z,1.80
2018-07-12T01:51:50.276Z,3.23
2018-07-12T01:54:16.644Z,1.87
2018-07-12T01:56:43.061Z,2.00
2018-07-12T01:59:10.543Z,2.40
2018-07-12T02:01:36.910Z,2.07
2018-07-12T02:04:03.324Z,1.87
2018-07-12T02:06:30.938Z,2.33
2018-07-12T02:08:57.796Z,2.17
2018-07-12T02:11:26.271Z,2.03
2018-07-12T02:13:52.882Z,2.47
2018-07-12T02:16:19.774Z,2.10
2018-07-12T02:18:46.177Z,2.50
2018-07-12T02:21:12.703Z,2.03
2018-07-12T02:23:39.062Z,2.73
2018-07-12T02:26:05.436Z,2.20
2018-07-12T02:28:32.150Z,2.37
2018-07-12T02:30:58.515Z,1.80
2018-07-12T02:33:24.857Z,2.00
2018-07-12T02:35:51.285Z,2.23
2018-07-12T02:38:17.655Z,2.47
2018-07-12T02:40:44.013Z,2.20
2018-07-12T02:43:10.441Z,2.20
2018-07-12T02:45:37.699Z,2.10
2018-07-12T02:48:04.099Z,2.30
2018-07-12T02:50:30.610Z,1.97
2018-07-12T02:52:56.942Z,1.93
2018-07-12T02:55:23.318Z,2.17
2018-07-12T02:57:49.766Z,3.00
2018-07-12T03:00:16.119Z,2.47
2018-07-12T03:02:42.486Z,2.40
2018-07-12T03:05:08.922Z,2.17
2018-07-12T03:07:35.359Z,1.87
2018-07-12T03:10:01.816Z,3.47
2018-07-12T03:12:28.258Z,1.83
2018-07-12T03:14:54.603Z,3.93
2018-07-12T03:17:20.956Z,1.93
2018-07-12T03:19:47.656Z,2.20
2018-07-12T03:22:13.987Z,1.97
2018-07-12T03:24:41.774Z,2.20
2018-07-12T03:27:08.364Z,3.73
2018-07-12T03:29:34.935Z,2.37
2018-07-12T03:32:01.344Z,1.70
2018-07-12T03:34:28.933Z,2.00
2018-07-12T03:36:55.321Z,2.33
2018-07-12T03:39:21.687Z,2.20
2018-07-12T03:41:48.246Z,2.13
2018-07-12T03:44:14.690Z,1.87
2018-07-12T03:46:41.122Z,2.07
2018-07-12T03:49:08.723Z,2.97
2018-07-12T03:51:35.065Z,2.13
2018-07-12T03:54:02.184Z,1.70
2018-07-12T03:56:28.740Z,2.03
2018-07-12T03:58:55.318Z,2.77
2018-07-12T04:01:21.759Z,3.73
2018-07-12T04:03:48.138Z,1.90
2018-07-12T04:06:14.489Z,1.70
2018-07-12T04:08:40.887Z,1.77
2018-07-12T04:11:07.333Z,1.87
2018-07-12T04:13:33.675Z,2.00
2018-07-12T04:16:00.013Z,2.20
2018-07-12T04:18:26.667Z,1.60
2018-07-12T04:20:53.044Z,2.10
2018-07-12T04:23:19.425Z,1.80
2018-07-12T04:25:45.953Z,1.77
2018-07-12T04:28:12.326Z,3.17
2018-07-12T04:30:38.955Z,1.93
2018-07-12T04:33:05.394Z,2.00
2018-07-12T04:35:31.930Z,1.93
2018-07-12T04:37:59.160Z,2.73
2018-07-12T04:40:25.782Z,2.13
2018-07-12T04:42:52.213Z,2.73
2018-07-12T04:45:18.584Z,2.10
2018-07-12T04:47:45.068Z,1.60
2018-07-12T04:50:11.754Z,2.07
2018-07-12T04:52:38.104Z,2.67
2018-07-12T04:55:04.725Z,2.87
2018-07-12T04:57:32.144Z,2.03
2018-07-12T04:59:58.565Z,1.90
2018-07-12T05:02:25.448Z,2.00
2018-07-12T05:04:51.848Z,2.57
2018-07-12T05:07:18.196Z,2.53
2018-07-12T05:09:44.726Z,2.60
2018-07-12T05:12:11.137Z,2.30
2018-07-12T05:14:37.469Z,2.70
2018-07-12T05:17:04.040Z,1.97
2018-07-12T05:19:30.395Z,1.80
2018-07-12T05:21:56.809Z,2.10
2018-07-12T05:24:23.457Z,2.10
2018-07-12T05:26:49.824Z,2.73
2018-07-12T05:29:16.220Z,2.03
2018-07-12T05:31:43.947Z,3.20
2018-07-12T05:34:11.353Z,2.87
2018-07-12T05:36:51.872Z,3.20
2018-07-12T05:39:21.582Z,2.40
2018-07-12T05:41:49.350Z,1.97
2018-07-12T05:44:17.865Z,2.80
2018-07-12T05:46:45.388Z,3.27
2018-07-12T05:49:12.897Z,2.33
2018-07-12T05:51:41.645Z,2.07
2018-07-12T05:54:09.894Z,3.27
2018-07-12T05:56:37.750Z,2.53
2018-07-12T05:59:05.917Z,3.83
2018-07-12T06:01:44.771Z,2.57
2018-07-12T06:04:12.809Z,2.40
2018-07-12T06:06:40.891Z,2.27
2018-07-12T06:09:10.263Z,2.27
2018-07-12T06:11:38.356Z,2.43
2018-07-12T06:14:06.041Z,3.07
2018-07-12T06:16:34.479Z,2.50
2018-07-12T06:19:02.666Z,2.37
2018-07-12T06:21:30.295Z,2.33
2018-07-12T06:23:57.908Z,3.33
2018-07-12T06:26:26.815Z,3.20
2018-07-12T06:28:54.458Z,2.43
2018-07-12T06:31:22.337Z,2.50
2018-07-12T06:33:50.623Z,2.60
2018-07-12T06:36:18.348Z,2.50
2018-07-12T06:38:46.878Z,4.37
2018-07-12T06:41:15.165Z,2.60
2018-07-12T06:43:43.047Z,3.10
2018-07-12T06:46:11.105Z,2.30
2018-07-12T06:48:39.620Z,2.67
2018-07-12T06:51:08.275Z,2.90
2018-07-12T06:53:37.126Z,2.60
2018-07-12T06:56:05.033Z,3.83
2018-07-12T06:58:35.404Z,2.70
2018-07-12T07:01:03.056Z,2.50
2018-07-12T07:03:30.890Z,4.33
2018-07-12T07:05:58.472Z,2.40
2018-07-12T07:08:27.006Z,2.60
2018-07-12T07:10:54.983Z,3.43
2018-07-12T07:13:22.576Z,2.33
2018-07-12T07:15:50.271Z,2.10
2018-07-12T07:18:18.706Z,2.47
2018-07-12T07:20:46.978Z,2.50
2018-07-12T07:23:15.392Z,2.43
2018-07-12T07:25:44.001Z,2.40
2018-07-12T07:28:11.570Z,2.60
2018-07-12T07:30:39.193Z,2.63
2018-07-12T07:33:07.296Z,3.10
2018-07-12T07:35:35.062Z,2.80
2018-07-12T07:38:02.911Z,2.50
2018-07-12T07:40:30.955Z,2.50
2018-07-12T07:42:59.233Z,2.00
2018-07-12T07:45:26.895Z,2.50
2018-07-12T07:47:54.916Z,2.30
2018-07-12T07:50:22.656Z,2.33
2018-07-12T07:52:50.268Z,3.23
2018-07-12T07:55:18.836Z,2.90
2018-07-12T07:57:47.097Z,2.23
2018-07-12T08:00:15.207Z,2.97
2018-07-12T08:02:43.291Z,2.07
2018-07-12T08:05:10.925Z,2.37
2018-07-12T08:07:38.533Z,2.33
2018-07-12T08:10:07.515Z,2.50
2018-07-12T08:12:35.257Z,2.27
2018-07-12T08:15:02.969Z,2.40
2018-07-12T08:17:30.883Z,2.23
2018-07-12T08:19:58.468Z,2.53
2018-07-12T08:22:26.075Z,2.03
2018-07-12T08:24:53.976Z,2.30
2018-07-12T08:27:22.128Z,2.53
2018-07-12T08:29:49.838Z,2.03
2018-07-12T08:32:17.651Z,2.80
2018-07-12T08:34:45.684Z,3.13
2018-07-12T08:37:14.223Z,3.13
2018-07-12T08:39:41.983Z,2.00
2018-07-12T08:42:09.601Z,5.93
2018-07-12T08:44:37.362Z,2.00
2018-07-12T08:47:05.313Z,2.30
2018-07-12T08:49:33.666Z,2.27
2018-07-12T08:52:02.083Z,2.23
2018-07-12T08:54:31.791Z,2.83
2018-07-12T08:56:59.470Z,1.80
2018-07-12T08:59:27.104Z,2.03
2018-07-12T09:01:54.672Z,1.90
2018-07-12T09:04:22.580Z,2.53
2018-07-12T09:06:50.180Z,2.07
2018-07-12T09:09:18.120Z,1.97
2018-07-12T09:11:46.751Z,2.60
2018-07-12T09:14:14.416Z,2.83
2018-07-12T09:16:42.441Z,2.37
2018-07-12T09:19:10.254Z,1.97
2018-07-12T09:21:38.573Z,2.50
2018-07-12T09:24:06.525Z,1.80
2018-07-12T09:26:35.433Z,1.80
2018-07-12T09:29:03.109Z,1.93
2018-07-12T09:31:31.769Z,1.90
2018-07-12T09:33:59.435Z,1.97
2018-07-12T09:36:28.023Z,2.43
2018-07-12T09:38:56.170Z,3.77
2018-07-12T09:41:25.892Z,2.03
2018-07-12T09:43:54.427Z,2.00
2018-07-12T09:46:22.329Z,2.40
2018-07-12T09:48:51.104Z,2.93
2018-07-12T09:51:18.749Z,1.90
2018-07-12T09:53:47.052Z,2.17
2018-07-12T09:56:14.770Z,1.90
2018-07-12T09:58:42.935Z,1.67
2018-07-12T10:01:16.242Z,1.83
2018-07-12T10:03:45.580Z,3.00
2018-07-12T10:06:18.874Z,1.57
2018-07-12T10:08:53.045Z,1.60
2018-07-12T10:11:26.698Z,1.83
2018-07-12T10:13:59.870Z,2.60
2018-07-12T10:16:34.078Z,1.70
2018-07-12T10:19:03.073Z,1.97
2018-07-12T10:21:32.359Z,1.83
2018-07-12T10:23:59.926Z,2.37
2018-07-12T10:26:27.684Z,1.97
2018-07-12T10:28:55.576Z,2.00
2018-07-12T10:31:23.214Z,2.10
2018-07-12T10:33:50.927Z,2.90
2018-07-12T10:36:18.620Z,1.87
2018-07-12T10:38:46.227Z,1.60
2018-07-12T10:41:15.047Z,2.13
2018-07-12T10:43:43.510Z,1.93
2018-07-12T10:46:11.128Z,1.93
2018-07-12T10:48:39.031Z,1.83
2018-07-12T10:51:06.773Z,1.70
2018-07-12T10:53:34.375Z,1.87
2018-07-12T10:56:04.179Z,1.90
2018-07-12T10:58:31.910Z,1.90
2018-07-12T11:00:59.498Z,2.20
2018-07-12T11:03:27.633Z,2.23
2018-07-12T11:05:55.459Z,1.90
2018-07-12T11:08:23.046Z,1.90
2018-07-12T11:10:50.796Z,2.00
2018-07-12T11:13:29.077Z,2.10
2018-07-12T11:15:56.876Z,2.40
2018-07-12T11:18:24.888Z,2.03
2018-07-12T11:20:55.226Z,2.60
2018-07-12T11:23:38.534Z,2.07
2018-07-12T11:26:06.172Z,2.10
2018-07-12T11:28:36.397Z,2.20
2018-07-12T11:31:04.853Z,2.40
2018-07-12T11:33:37.708Z,2.47
2018-07-12T11:36:06.607Z,1.80
2018-07-12T11:38:35.620Z,1.83
2018-07-12T11:41:03.565Z,1.67
2018-07-12T11:43:31.624Z,3.10
2018-07-12T11:46:02.351Z,3.83
2018-07-12T11:48:30.437Z,4.40
2018-07-12T11:50:58.523Z,1.60
2018-07-12T11:53:26.562Z,1.90
2018-07-12T11:55:54.292Z,1.87
2018-07-12T11:58:22.999Z,2.77
2018-07-12T12:00:51.460Z,1.50
2018-07-12T12:03:19.062Z,1.67
2018-07-12T12:05:46.970Z,1.90
2018-07-12T12:08:15.687Z,2.10
2018-07-12T12:10:45.375Z,2.77
2018-07-12T12:13:13.588Z,1.80
2018-07-12T12:15:41.195Z,1.80
2018-07-12T12:18:08.861Z,1.83
2018-07-12T12:20:37.491Z,2.10
2018-07-12T12:23:06.031Z,1.77
2018-07-12T12:25:33.655Z,2.80
2018-07-12T12:28:01.745Z,2.27
2018-07-12T12:30:29.348Z,2.30
2018-07-12T12:32:57.470Z,3.00
2018-07-12T12:35:25.663Z,2.40
2018-07-12T12:37:54.798Z,2.80
2018-07-12T12:40:23.225Z,2.60
2018-07-12T12:42:51.012Z,2.57
2018-07-12T12:45:18.911Z,2.10
2018-07-12T12:47:46.779Z,2.23
2018-07-12T12:50:14.975Z,2.10
2018-07-12T12:52:42.768Z,2.20
2018-07-12T12:55:11.968Z,2.10
2018-07-12T12:57:40.965Z,2.53
2018-07-12T13:00:09.670Z,1.90
2018-07-12T13:02:37.403Z,2.10
2018-07-12T13:05:05.399Z,1.97
2018-07-12T13:07:32.976Z,2.50
2018-07-12T13:10:00.604Z,2.30
2018-07-12T13:12:28.527Z,2.70
2018-07-12T13:14:56.114Z,2.30
2018-07-12T13:17:23.758Z,4.13
2018-07-12T13:19:51.436Z,2.57
2018-07-12T13:22:19.103Z,2.57
2018-07-12T13:24:46.895Z,2.20
2018-07-12T13:27:14.554Z,2.27
2018-07-12T13:29:42.327Z,2.23
2018-07-12T13:32:10.009Z,1.90
2018-07-12T13:34:38.873Z,2.00
2018-07-12T13:37:06.565Z,1.80
2018-07-12T13:39:34.176Z,2.13
2018-07-12T13:42:02.328Z,2.20
2018-07-12T13:44:29.944Z,2.03
2018-07-12T13:46:57.842Z,2.00
2018-07-12T13:49:25.779Z,2.20
2018-07-12T13:51:53.454Z,2.27
2018-07-12T13:54:21.223Z,1.90
2018-07-12T13:56:49.544Z,1.67
2018-07-12T13:59:17.202Z,1.20
2018-07-12T14:01:44.925Z,2.17
2018-07-12T14:04:12.785Z,2.00
2018-07-12T14:06:40.367Z,2.73
2018-07-12T14:09:10.188Z,1.30
2018-07-12T14:11:38.379Z,1.57
2018-07-12T14:14:06.183Z,1.30
2018-07-12T14:16:33.771Z,1.20
2018-07-12T14:19:02.473Z,2.27
2018-07-12T14:21:30.097Z,3.20
2018-07-12T14:23:57.795Z,1.57
2018-07-12T14:26:25.561Z,1.30
2018-07-12T14:28:53.866Z,1.13
2018-07-12T14:31:21.558Z,1.10
2018-07-12T14:33:49.534Z,1.50
2018-07-12T14:36:17.202Z,1.20
2018-07-12T14:38:44.768Z,1.00
2018-07-12T14:41:12.790Z,1.00
2018-07-12T14:43:40.568Z,1.60
2018-07-12T14:46:08.209Z,1.40
2018-07-12T14:48:36.430Z,2.07
2018-07-12T14:51:04.128Z,2.13
2018-07-12T14:53:31.734Z,1.80
2018-07-12T14:55:59.642Z,2.43
2018-07-12T14:58:27.369Z,2.70
2018-07-12T15:00:55.086Z,2.70
2018-07-12T15:03:23.189Z,2.97
2018-07-12T15:05:50.806Z,2.20
2018-07-12T15:08:18.414Z,2.70
2018-07-12T15:10:46.299Z,2.90
2018-07-12T15:13:13.906Z,2.80
2018-07-12T15:15:41.534Z,2.87
2018-07-12T15:18:09.506Z,2.90
2018-07-12T15:20:37.134Z,2.87
2018-07-12T15:23:04.896Z,2.97
2018-07-12T15:25:32.732Z,2.50
2018-07-12T15:28:00.513Z,2.37
2018-07-12T15:30:28.047Z,1.90
2018-07-12T15:32:55.922Z,1.73
2018-07-12T15:35:23.548Z,1.70
2018-07-12T15:37:51.207Z,2.10
2018-07-12T15:40:19.216Z,1.90
2018-07-12T15:42:46.826Z,2.00
2018-07-12T15:45:14.527Z,1.80
2018-07-12T15:47:42.674Z,2.17
2018-07-12T15:50:11.532Z,2.23
2018-07-12T15:52:39.157Z,2.20
2018-07-12T15:55:07.474Z,3.13
2018-07-12T15:57:35.196Z,1.60
2018-07-12T16:00:02.910Z,1.30
2018-07-12T16:02:31.032Z,2.60
2018-07-12T16:04:58.754Z,2.07
2018-07-12T16:07:26.373Z,2.30
2018-07-12T16:09:54.405Z,2.30
2018-07-12T16:12:22.157Z,2.03
2018-07-12T16:14:49.825Z,1.97
2018-07-12T16:17:17.688Z,2.37
2018-07-12T16:19:45.363Z,2.10
2018-07-12T16:22:13.001Z,2.50
2018-07-12T16:24:40.989Z,3.20
2018-07-12T16:27:08.696Z,2.03
2018-07-12T16:29:36.336Z,2.40
2018-07-12T16:32:04.470Z,2.53
2018-07-12T16:34:32.154Z,2.20
2018-07-12T16:36:59.751Z,1.80
2018-07-12T16:39:28.568Z,2.00
2018-07-12T16:41:56.228Z,1.90
2018-07-12T16:44:23.935Z,1.90
2018-07-12T16:46:51.874Z,1.77
2018-07-12T16:49:19.530Z,2.33
2018-07-12T16:51:47.382Z,2.00
2018-07-12T16:54:15.132Z,2.07
2018-07-12T16:56:42.847Z,3.67
2018-07-12T16:59:10.495Z,2.07
2018-07-12T17:01:38.265Z,2.30
2018-07-12T17:04:05.894Z,2.90
2018-07-12T17:06:33.886Z,2.00
2018-07-12T17:09:02.083Z,2.20
2018-07-12T17:11:29.748Z,2.30
2018-07-12T17:13:58.292Z,2.33
2018-07-12T17:16:26.503Z,2.30
2018-07-12T17:18:54.356Z,2.57
2018-07-12T17:21:22.060Z,2.03
2018-07-12T17:23:50.614Z,2.10
2018-07-12T17:26:18.261Z,2.47
2018-07-12T17:28:46.018Z,2.53
2018-07-12T17:31:14.093Z,2.87
2018-07-12T17:33:41.859Z,2.83
2018-07-12T17:36:09.497Z,3.10
2018-07-12T17:38:37.500Z,2.80
2018-07-12T17:41:05.244Z,3.10
2018-07-12T17:43:32.913Z,2.67
2018-07-12T17:46:00.902Z,3.00
2018-07-12T17:48:28.505Z,2.83
2018-07-12T17:50:56.355Z,2.90
2018-07-12T17:53:24.464Z,2.47
2018-07-12T17:55:52.768Z,2.93
2018-07-12T17:58:20.413Z,2.77
2018-07-12T18:00:49.164Z,3.40
2018-07-12T18:03:16.766Z,2.90
2018-07-12T18:05:44.322Z,3.63
2018-07-12T18:08:12.081Z,3.80
2018-07-12T18:10:39.754Z,3.20
2018-07-12T18:13:07.408Z,3.50
2018-07-12T18:15:35.552Z,4.47
2018-07-12T18:18:03.220Z,3.60
2018-07-12T18:20:30.839Z,3.93
2018-07-12T18:22:58.823Z,4.40
2018-07-12T18:25:26.422Z,5.20
2018-07-12T18:27:54.119Z,3.77
2018-07-12T18:30:22.274Z,4.37
2018-07-12T18:32:49.880Z,3.70
2018-07-12T18:35:17.585Z,6.37
2018-07-12T18:37:45.590Z,3.50
2018-07-12T18:40:13.244Z,3.57
2018-07-12T18:42:40.818Z,5.83
2018-07-12T18:45:08.733Z,3.77
2018-07-12T18:47:36.344Z,4.23
2018-07-12T18:50:04.922Z,3.57
2018-07-12T18:52:32.987Z,3.70
2018-07-12T18:55:00.778Z,4.83
2018-07-12T18:57:28.555Z,5.10
2018-07-12T18:59:56.410Z,3.40
2018-07-12T19:02:23.996Z,3.83
2018-07-12T19:04:51.616Z,3.43
2018-07-12T19:07:19.310Z,3.10
2018-07-12T19:09:47.095Z,3.50
2018-07-12T19:12:14.742Z,3.40
2018-07-12T19:14:42.502Z,3.43
2018-07-12T19:17:10.176Z,5.47
2018-07-12T19:19:38.478Z,3.50
2018-07-12T19:22:06.406Z,2.93
2018-07-12T19:24:34.025Z,3.97
2018-07-12T19:27:02.199Z,3.30
2018-07-12T19:29:30.179Z,3.50
2018-07-12T19:31:57.971Z,3.50
2018-07-12T19:34:25.618Z,4.33
2018-07-12T19:36:53.307Z,3.20
2018-07-12T19:39:20.965Z,3.30
2018-07-12T19:41:48.604Z,3.37
2018-07-12T19:44:16.260Z,4.33
2018-07-12T19:46:43.976Z,3.10
2018-07-12T19:49:11.539Z,3.53
2018-07-12T19:51:39.398Z,3.60
2018-07-12T19:54:06.998Z,3.90
2018-07-12T19:56:34.885Z,3.30
2018-07-12T19:59:02.866Z,3.53
2018-07-12T20:01:30.486Z,3.30
2018-07-12T20:03:58.180Z,3.33
2018-07-12T20:06:26.103Z,3.77
2018-07-12T20:08:53.805Z,3.60
2018-07-12T20:11:21.462Z,3.80
2018-07-12T20:13:49.445Z,3.63
2018-07-12T20:16:17.131Z,5.00
2018-07-12T20:18:44.803Z,3.40
2018-07-12T20:21:12.916Z,4.17
2018-07-12T20:23:40.550Z,3.97
2018-07-12T20:26:08.406Z,4.20
2018-07-12T20:28:36.567Z,5.10
2018-07-12T20:31:04.238Z,4.63
2018-07-12T20:33:32.017Z,4.20
2018-07-12T20:36:00.113Z,3.87
2018-07-12T20:38:27.745Z,5.23
2018-07-12T20:40:55.395Z,5.00
2018-07-12T20:43:23.454Z,3.97
2018-07-12T20:45:51.134Z,5.30
2018-07-12T20:48:18.766Z,4.07
2018-07-12T20:50:46.742Z,4.37
2018-07-12T20:53:14.807Z,4.50
2018-07-12T20:55:42.447Z,4.37
2018-07-12T20:58:10.876Z,4.17
2018-07-12T21:00:38.754Z,6.17
2018-07-12T21:03:06.518Z,4.50
2018-07-12T21:05:34.661Z,4.70
2018-07-12T21:08:02.327Z,4.57
2018-07-12T21:10:30.262Z,4.50
2018-07-12T21:12:58.766Z,4.63
2018-07-12T21:15:26.509Z,4.70
2018-07-12T21:17:54.118Z,5.10
2018-07-12T21:20:22.011Z,4.77
2018-07-12T21:22:50.655Z,4.23
2018-07-12T21:25:18.402Z,4.30
2018-07-12T21:27:46.304Z,4.87
2018-07-12T21:30:13.989Z,5.57
2018-07-12T21:32:41.602Z,4.93
2018-07-12T21:35:09.626Z,4.70
2018-07-12T21:37:37.340Z,4.67
2018-07-12T21:40:05.033Z,4.77
2018-07-12T21:42:33.861Z,4.80
2018-07-12T21:45:01.442Z,5.00
2018-07-12T21:47:29.670Z,4.90
2018-07-12T21:49:57.668Z,5.07
2018-07-12T21:52:25.294Z,5.67
2018-07-12T21:54:52.956Z,5.00
2018-07-12T21:57:21.026Z,4.73
2018-07-12T21:59:49.679Z,6.23
2018-07-12T22:02:17.480Z,5.47
2018-07-12T22:04:45.395Z,4.87
2018-07-12T22:08:26.830Z,5.50
2018-07-12T22:10:56.049Z,6.33
2018-07-12T22:13:24.267Z,5.47
2018-07-12T22:15:51.963Z,5.43
2018-07-12T22:18:20.170Z,7.37
2018-07-12T22:20:47.849Z,6.70
2018-07-12T22:23:15.452Z,5.47
2018-07-12T22:25:43.485Z,5.10
2018-07-12T22:28:11.124Z,5.03
2018-07-12T22:30:38.835Z,6.17
2018-07-12T22:33:06.965Z,5.47
2018-07-12T22:35:34.557Z,6.43
2018-07-12T22:38:02.903Z,5.43
2018-07-12T22:40:30.984Z,5.40
2018-07-12T22:42:58.674Z,5.23
2018-07-12T22:45:26.306Z,5.63
2018-07-12T22:47:54.281Z,5.40
2018-07-12T22:50:21.856Z,5.03
2018-07-12T22:52:49.456Z,5.23
2018-07-12T22:55:17.422Z,5.97
2018-07-12T22:57:45.035Z,5.63
2018-07-12T23:00:12.931Z,6.03
2018-07-12T23:02:40.917Z,5.67
2018-07-12T23:05:08.753Z,5.87
2018-07-12T23:07:36.438Z,5.53
2018-07-12T23:10:05.173Z,6.00
2018-07-12T23:12:33.762Z,5.87
2018-07-12T23:15:01.325Z,5.30
2018-07-12T23:17:29.597Z,5.93
2018-07-12T23:19:57.234Z,5.90
2018-07-12T23:22:24.869Z,6.00
2018-07-12T23:24:53.387Z,5.17
2018-07-12T23:27:21.668Z,5.67
2018-07-12T23:29:49.303Z,5.20
2018-07-12T23:32:17.035Z,6.13
2018-07-12T23:34:44.849Z,5.87
2018-07-12T23:37:12.494Z,5.80
2018-07-12T23:39:40.616Z,5.07
2018-07-12T23:42:08.249Z,5.17
2018-07-12T23:44:35.889Z,5.57
2018-07-12T23:47:03.822Z,5.53
2018-07-12T23:49:31.477Z,6.07
2018-07-12T23:51:59.117Z,5.57
2018-07-12T23:54:27.705Z,6.13
2018-07-12T23:56:55.343Z,5.57
2018-07-12T23:59:22.991Z,6.23
